< Typhoon 195518 1955 Season Typhoon 195520 >
Typhoon 195519 (IRIS)
General InformationTrack Information on Google Maps || Disaster Info.ResourceGoogle EarthGE AnimationAtom FeedGeoJSON
Detalied Best Track (Time Zone = UTC)
Year Month Day Hour Lat. Long. Pressure (hPa) Wind (kt) Class Image Chart
1955 8 19 18 10.4 135.5 1006 0 2 -- Chart
1955 8 20 00 11.2 132.9 1006 0 2 -- Chart
1955 8 20 06 12.7 130.2 1006 0 2 -- Chart
1955 8 20 12 14.0 127.9 1006 0 2 -- Chart
1955 8 20 18 14.9 126.5 1006 0 2 -- Chart
1955 8 21 00 15.5 125.7 1004 0 2 -- Chart
1955 8 21 06 16.2 125.1 1000 0 2 -- Chart
1955 8 21 12 17.1 124.5 994 0 2 -- Chart
1955 8 21 18 18.1 124.0 990 0 2 -- Chart
1955 8 22 00 19.2 123.5 985 0 9 -- Chart
1955 8 22 06 20.2 122.8 985 0 9 -- Chart
1955 8 22 12 20.6 122.4 980 0 9 -- Chart
1955 8 22 18 20.9 122.3 970 0 9 -- Chart
1955 8 23 00 21.3 122.1 965 0 9 -- Chart
1955 8 23 06 21.7 121.7 965 0 9 -- Chart
1955 8 23 12 22.3 121.4 965 0 9 -- Chart
1955 8 23 18 23.2 121.0 970 0 9 -- Chart
1955 8 24 00 24.5 119.7 985 0 9 -- Chart
1955 8 24 06 25.1 119.1 990 0 9 -- Chart
1955 8 24 12 25.7 118.7 990 0 9 -- Chart
1955 8 24 18 26.0 118.0 994 0 9 -- Chart
1955 8 25 00 26.5 117.5 996 0 2 -- Chart
1955 8 25 06 27.4 117.9 996 0 2 -- Chart
1955 8 25 12 27.7 118.0 996 0 2 -- Chart
1955 8 25 18 27.9 118.1 998 0 2 -- Chart
1955 8 26 00 28.0 118.1 998 0 2 -- Chart
Japan Meteorological Agency Best Track Data | Correction Date : 1989-06-01
< Typhoon 195518 1955 Season Typhoon 195520 >

Help